sensor_id;sensor_type;location;lat;lon;timestamp;temperature;humidity
57566;DHT22;63999;43.882;-0.310;2023-05-10T00:01:03;15.30;79.00
57566;DHT22;63999;43.882;-0.310;2023-05-10T00:03:29;15.30;78.90
57566;DHT22;63999;43.882;-0.310;2023-05-10T00:06:00;15.30;79.40
57566;DHT22;63999;43.882;-0.310;2023-05-10T00:08:26;15.40;79.00
57566;DHT22;63999;43.882;-0.310;2023-05-10T00:10:54;15.40;79.10
57566;DHT22;63999;43.882;-0.310;2023-05-10T00:13:24;15.50;79.80
57566;DHT22;63999;43.882;-0.310;2023-05-10T00:15:55;15.50;79.90
57566;DHT22;63999;43.882;-0.310;2023-05-10T00:18:21;15.70;80.10
57566;DHT22;63999;43.882;-0.310;2023-05-10T00:20:49;16.00;79.70
57566;DHT22;63999;43.882;-0.310;2023-05-10T00:23:15;16.00;79.60
57566;DHT22;63999;43.882;-0.310;2023-05-10T00:25:43;16.10;78.40
57566;DHT22;63999;43.882;-0.310;2023-05-10T00:28:09;15.80;78.40
57566;DHT22;63999;43.882;-0.310;2023-05-10T00:30:35;15.70;79.00
57566;DHT22;63999;43.882;-0.310;2023-05-10T00:33:04;15.60;78.30
57566;DHT22;63999;43.882;-0.310;2023-05-10T00:35:32;15.50;78.20
57566;DHT22;63999;43.882;-0.310;2023-05-10T00:37:57;15.30;78.20
57566;DHT22;63999;43.882;-0.310;2023-05-10T00:40:23;15.30;78.10
57566;DHT22;63999;43.882;-0.310;2023-05-10T00:42:52;15.20;78.30
57566;DHT22;63999;43.882;-0.310;2023-05-10T00:45:21;15.10;78.20
57566;DHT22;63999;43.882;-0.310;2023-05-10T00:47:53;15.20;78.20
57566;DHT22;63999;43.882;-0.310;2023-05-10T00:50:22;15.20;78.10
57566;DHT22;63999;43.882;-0.310;2023-05-10T00:52:51;15.10;78.90
57566;DHT22;63999;43.882;-0.310;2023-05-10T00:55:18;15.10;78.00
57566;DHT22;63999;43.882;-0.310;2023-05-10T00:57:47;15.00;77.90
57566;DHT22;63999;43.882;-0.310;2023-05-10T01:00:17;15.00;78.40
57566;DHT22;63999;43.882;-0.310;2023-05-10T01:02:47;15.00;78.00
57566;DHT22;63999;43.882;-0.310;2023-05-10T01:05:17;15.00;78.10
57566;DHT22;63999;43.882;-0.310;2023-05-10T01:07:48;14.90;78.10
57566;DHT22;63999;43.882;-0.310;2023-05-10T01:10:14;14.90;78.50
57566;DHT22;63999;43.882;-0.310;2023-05-10T01:12:43;14.90;78.20
57566;DHT22;63999;43.882;-0.310;2023-05-10T01:15:16;14.80;78.30
57566;DHT22;63999;43.882;-0.310;2023-05-10T01:17:44;14.80;78.40
57566;DHT22;63999;43.882;-0.310;2023-05-10T01:20:12;14.80;78.50
57566;DHT22;63999;43.882;-0.310;2023-05-10T01:35:04;14.60;78.60
57566;DHT22;63999;43.882;-0.310;2023-05-10T01:40:23;14.60;78.30
57566;DHT22;63999;43.882;-0.310;2023-05-10T01:42:59;14.60;78.30
57566;DHT22;63999;43.882;-0.310;2023-05-10T01:45:52;14.50;78.20
57566;DHT22;63999;43.882;-0.310;2023-05-10T01:48:25;14.50;78.00
57566;DHT22;63999;43.882;-0.310;2023-05-10T01:50:56;14.50;78.10
57566;DHT22;63999;43.882;-0.310;2023-05-10T01:53:30;14.40;78.10
57566;DHT22;63999;43.882;-0.310;2023-05-10T01:55:58;14.40;78.00
57566;DHT22;63999;43.882;-0.310;2023-05-10T01:58:32;14.30;78.10
57566;DHT22;63999;43.882;-0.310;2023-05-10T02:01:01;14.30;78.00
57566;DHT22;63999;43.882;-0.310;2023-05-10T02:03:32;14.30;77.80
57566;DHT22;63999;43.882;-0.310;2023-05-10T02:06:06;14.30;77.90
57566;DHT22;63999;43.882;-0.310;2023-05-10T02:08:36;14.30;77.70
57566;DHT22;63999;43.882;-0.310;2023-05-10T02:11:04;14.20;77.80
57566;DHT22;63999;43.882;-0.310;2023-05-10T02:13:32;14.20;77.70
57566;DHT22;63999;43.882;-0.310;2023-05-10T02:16:00;14.20;77.60
57566;DHT22;63999;43.882;-0.310;2023-05-10T02:18:27;14.10;77.60
57566;DHT22;63999;43.882;-0.310;2023-05-10T02:20:55;14.10;77.70
57566;DHT22;63999;43.882;-0.310;2023-05-10T02:23:22;14.00;77.60
57566;DHT22;63999;43.882;-0.310;2023-05-10T02:25:55;14.00;77.50
57566;DHT22;63999;43.882;-0.310;2023-05-10T02:28:23;14.00;77.50
57566;DHT22;63999;43.882;-0.310;2023-05-10T02:30:55;14.00;77.50
57566;DHT22;63999;43.882;-0.310;2023-05-10T02:33:22;13.90;77.40
57566;DHT22;63999;43.882;-0.310;2023-05-10T02:35:48;13.90;77.40
57566;DHT22;63999;43.882;-0.310;2023-05-10T02:38:15;13.90;77.40
57566;DHT22;63999;43.882;-0.310;2023-05-10T02:40:42;13.90;77.30
57566;DHT22;63999;43.882;-0.310;2023-05-10T02:43:14;13.90;77.40
57566;DHT22;63999;43.882;-0.310;2023-05-10T02:45:47;13.90;77.30
57566;DHT22;63999;43.882;-0.310;2023-05-10T02:48:15;13.80;77.20
57566;DHT22;63999;43.882;-0.310;2023-05-10T02:50:44;13.80;77.30
57566;DHT22;63999;43.882;-0.310;2023-05-10T02:53:27;13.70;77.20
57566;DHT22;63999;43.882;-0.310;2023-05-10T02:55:59;13.70;77.30
57566;DHT22;63999;43.882;-0.310;2023-05-10T02:58:29;13.70;77.30
57566;DHT22;63999;43.882;-0.310;2023-05-10T03:00:57;13.70;77.20
57566;DHT22;63999;43.882;-0.310;2023-05-10T03:03:23;13.60;77.20
57566;DHT22;63999;43.882;-0.310;2023-05-10T03:05:51;13.60;77.20
57566;DHT22;63999;43.882;-0.310;2023-05-10T03:08:22;13.60;77.20
57566;DHT22;63999;43.882;-0.310;2023-05-10T03:16:45;13.50;77.20
57566;DHT22;63999;43.882;-0.310;2023-05-10T03:19:26;13.50;77.20
57566;DHT22;63999;43.882;-0.310;2023-05-10T03:21:53;13.50;77.20
57566;DHT22;63999;43.882;-0.310;2023-05-10T03:24:27;13.50;77.10
57566;DHT22;63999;43.882;-0.310;2023-05-10T03:26:56;13.50;77.00
57566;DHT22;63999;43.882;-0.310;2023-05-10T03:29:26;13.40;77.10
57566;DHT22;63999;43.882;-0.310;2023-05-10T03:31:55;13.40;77.20
57566;DHT22;63999;43.882;-0.310;2023-05-10T03:34:25;13.30;77.20
57566;DHT22;63999;43.882;-0.310;2023-05-10T03:36:51;13.30;77.20
57566;DHT22;63999;43.882;-0.310;2023-05-10T03:39:23;13.30;77.10
57566;DHT22;63999;43.882;-0.310;2023-05-10T03:41:50;13.30;77.10
57566;DHT22;63999;43.882;-0.310;2023-05-10T03:44:16;13.30;77.30
57566;DHT22;63999;43.882;-0.310;2023-05-10T03:46:42;13.30;77.40
57566;DHT22;63999;43.882;-0.310;2023-05-10T03:49:13;13.30;77.50
57566;DHT22;63999;43.882;-0.310;2023-05-10T03:51:39;13.30;77.50
57566;DHT22;63999;43.882;-0.310;2023-05-10T03:54:05;13.30;77.60
57566;DHT22;63999;43.882;-0.310;2023-05-10T03:56:31;13.30;77.60
57566;DHT22;63999;43.882;-0.310;2023-05-10T03:58:57;13.30;77.70
57566;DHT22;63999;43.882;-0.310;2023-05-10T04:01:26;13.30;77.90
57566;DHT22;63999;43.882;-0.310;2023-05-10T04:03:51;13.30;77.90
57566;DHT22;63999;43.882;-0.310;2023-05-10T04:06:17;13.30;78.10
57566;DHT22;63999;43.882;-0.310;2023-05-10T04:08:48;13.30;77.90
57566;DHT22;63999;43.882;-0.310;2023-05-10T04:11:14;13.30;78.00
57566;DHT22;63999;43.882;-0.310;2023-05-10T04:13:39;13.30;78.00
57566;DHT22;63999;43.882;-0.310;2023-05-10T04:16:06;13.30;77.90
57566;DHT22;63999;43.882;-0.310;2023-05-10T04:18:31;13.30;77.80
57566;DHT22;63999;43.882;-0.310;2023-05-10T04:20:57;13.30;77.90
57566;DHT22;63999;43.882;-0.310;2023-05-10T04:23:23;13.30;77.90
57566;DHT22;63999;43.882;-0.310;2023-05-10T04:25:49;13.30;77.90
57566;DHT22;63999;43.882;-0.310;2023-05-10T04:28:17;13.30;78.10
57566;DHT22;63999;43.882;-0.310;2023-05-10T04:30:43;13.30;78.00
57566;DHT22;63999;43.882;-0.310;2023-05-10T04:33:09;13.30;78.10
57566;DHT22;63999;43.882;-0.310;2023-05-10T04:35:35;13.30;77.90
57566;DHT22;63999;43.882;-0.310;2023-05-10T04:38:01;13.30;78.00
57566;DHT22;63999;43.882;-0.310;2023-05-10T04:40:29;13.20;77.90
57566;DHT22;63999;43.882;-0.310;2023-05-10T04:43:00;13.20;77.80
57566;DHT22;63999;43.882;-0.310;2023-05-10T04:45:26;13.10;77.70
57566;DHT22;63999;43.882;-0.310;2023-05-10T04:47:52;13.10;77.80
57566;DHT22;63999;43.882;-0.310;2023-05-10T04:50:17;13.10;77.70
57566;DHT22;63999;43.882;-0.310;2023-05-10T04:52:43;13.10;77.90
57566;DHT22;63999;43.882;-0.310;2023-05-10T04:55:09;13.10;77.90
57566;DHT22;63999;43.882;-0.310;2023-05-10T04:57:35;13.30;79.30
57566;DHT22;63999;43.882;-0.310;2023-05-10T05:00:01;13.30;77.20
57566;DHT22;63999;43.882;-0.310;2023-05-10T05:02:27;13.10;77.30
57566;DHT22;63999;43.882;-0.310;2023-05-10T05:04:56;13.10;77.20
57566;DHT22;63999;43.882;-0.310;2023-05-10T05:07:23;13.00;77.20
57566;DHT22;63999;43.882;-0.310;2023-05-10T05:09:52;13.00;77.20
57566;DHT22;63999;43.882;-0.310;2023-05-10T05:12:20;13.00;77.10
57566;DHT22;63999;43.882;-0.310;2023-05-10T05:14:46;13.00;77.20
57566;DHT22;63999;43.882;-0.310;2023-05-10T05:17:15;12.90;77.20
57566;DHT22;63999;43.882;-0.310;2023-05-10T05:19:41;13.00;77.10
57566;DHT22;63999;43.882;-0.310;2023-05-10T05:22:18;13.00;77.50
57566;DHT22;63999;43.882;-0.310;2023-05-10T05:24:56;13.00;77.80
57566;DHT22;63999;43.882;-0.310;2023-05-10T05:27:24;13.00;77.70
57566;DHT22;63999;43.882;-0.310;2023-05-10T05:29:57;13.00;77.80
57566;DHT22;63999;43.882;-0.310;2023-05-10T05:32:23;13.00;78.00
57566;DHT22;63999;43.882;-0.310;2023-05-10T05:34:50;13.10;77.80
57566;DHT22;63999;43.882;-0.310;2023-05-10T05:37:20;13.10;77.80
57566;DHT22;63999;43.882;-0.310;2023-05-10T05:39:47;13.10;78.50
57566;DHT22;63999;43.882;-0.310;2023-05-10T05:42:13;13.10;78.10
57566;DHT22;63999;43.882;-0.310;2023-05-10T05:44:40;13.10;78.60
57566;DHT22;63999;43.882;-0.310;2023-05-10T05:47:06;13.10;78.70
57566;DHT22;63999;43.882;-0.310;2023-05-10T05:49:32;13.10;78.90
57566;DHT22;63999;43.882;-0.310;2023-05-10T05:52:02;13.10;79.10
57566;DHT22;63999;43.882;-0.310;2023-05-10T05:54:29;13.20;79.10
57566;DHT22;63999;43.882;-0.310;2023-05-10T05:56:56;13.20;79.20
57566;DHT22;63999;43.882;-0.310;2023-05-10T05:59:22;13.30;78.90
57566;DHT22;63999;43.882;-0.310;2023-05-10T06:01:48;13.30;78.30
57566;DHT22;63999;43.882;-0.310;2023-05-10T06:04:15;13.30;79.00
57566;DHT22;63999;43.882;-0.310;2023-05-10T06:06:43;13.50;79.00
57566;DHT22;63999;43.882;-0.310;2023-05-10T06:09:27;13.40;78.80
57566;DHT22;63999;43.882;-0.310;2023-05-10T06:11:54;13.40;79.40
57566;DHT22;63999;43.882;-0.310;2023-05-10T06:14:21;13.40;79.00
57566;DHT22;63999;43.882;-0.310;2023-05-10T06:16:50;13.40;79.30
57566;DHT22;63999;43.882;-0.310;2023-05-10T06:19:16;13.50;79.40
57566;DHT22;63999;43.882;-0.310;2023-05-10T06:21:42;13.50;79.40
57566;DHT22;63999;43.882;-0.310;2023-05-10T06:24:10;13.50;79.40
57566;DHT22;63999;43.882;-0.310;2023-05-10T06:26:36;13.50;79.60
57566;DHT22;63999;43.882;-0.310;2023-05-10T06:29:02;13.50;79.40
57566;DHT22;63999;43.882;-0.310;2023-05-10T06:31:28;13.50;79.50
57566;DHT22;63999;43.882;-0.310;2023-05-10T06:33:53;13.50;79.50
57566;DHT22;63999;43.882;-0.310;2023-05-10T06:36:22;13.50;79.10
57566;DHT22;63999;43.882;-0.310;2023-05-10T06:38:50;13.50;79.20
57566;DHT22;63999;43.882;-0.310;2023-05-10T06:41:16;13.50;79.20
57566;DHT22;63999;43.882;-0.310;2023-05-10T06:43:42;13.50;79.00
57566;DHT22;63999;43.882;-0.310;2023-05-10T06:46:24;13.60;79.40
57566;DHT22;63999;43.882;-0.310;2023-05-10T06:48:49;13.60;79.40
57566;DHT22;63999;43.882;-0.310;2023-05-10T06:51:15;13.60;79.10
57566;DHT22;63999;43.882;-0.310;2023-05-10T06:53:41;13.60;79.00
57566;DHT22;63999;43.882;-0.310;2023-05-10T06:56:31;13.60;79.80
57566;DHT22;63999;43.882;-0.310;2023-05-10T06:58:57;13.70;79.30
57566;DHT22;63999;43.882;-0.310;2023-05-10T07:01:23;13.70;79.40
57566;DHT22;63999;43.882;-0.310;2023-05-10T07:03:53;13.70;79.30
57566;DHT22;63999;43.882;-0.310;2023-05-10T07:06:19;13.70;79.80
57566;DHT22;63999;43.882;-0.310;2023-05-10T07:08:47;13.70;79.80
57566;DHT22;63999;43.882;-0.310;2023-05-10T07:11:13;13.80;79.60
57566;DHT22;63999;43.882;-0.310;2023-05-10T07:13:39;13.90;80.00
57566;DHT22;63999;43.882;-0.310;2023-05-10T07:16:09;13.90;79.20
57566;DHT22;63999;43.882;-0.310;2023-05-10T07:18:36;13.90;80.00
57566;DHT22;63999;43.882;-0.310;2023-05-10T07:21:02;13.90;80.30
57566;DHT22;63999;43.882;-0.310;2023-05-10T07:23:28;14.10;80.00
57566;DHT22;63999;43.882;-0.310;2023-05-10T07:25:54;14.10;79.60
57566;DHT22;63999;43.882;-0.310;2023-05-10T07:28:21;14.10;79.60
57566;DHT22;63999;43.882;-0.310;2023-05-10T07:30:47;14.20;80.00
57566;DHT22;63999;43.882;-0.310;2023-05-10T07:33:16;14.10;80.20
57566;DHT22;63999;43.882;-0.310;2023-05-10T07:35:47;14.10;79.90
57566;DHT22;63999;43.882;-0.310;2023-05-10T07:38:13;14.20;80.50
57566;DHT22;63999;43.882;-0.310;2023-05-10T07:40:39;14.30;79.50
57566;DHT22;63999;43.882;-0.310;2023-05-10T07:43:05;14.30;79.40
57566;DHT22;63999;43.882;-0.310;2023-05-10T07:45:31;14.30;79.20
57566;DHT22;63999;43.882;-0.310;2023-05-10T07:47:57;14.30;79.50
57566;DHT22;63999;43.882;-0.310;2023-05-10T07:50:23;14.40;80.00
57566;DHT22;63999;43.882;-0.310;2023-05-10T07:52:49;14.50;79.60
57566;DHT22;63999;43.882;-0.310;2023-05-10T07:55:18;14.50;79.50
57566;DHT22;63999;43.882;-0.310;2023-05-10T07:57:58;14.50;79.20
57566;DHT22;63999;43.882;-0.310;2023-05-10T08:00:26;14.50;79.20
57566;DHT22;63999;43.882;-0.310;2023-05-10T08:02:55;14.60;78.90
57566;DHT22;63999;43.882;-0.310;2023-05-10T08:05:21;14.70;78.60
57566;DHT22;63999;43.882;-0.310;2023-05-10T08:07:47;14.70;78.60
57566;DHT22;63999;43.882;-0.310;2023-05-10T08:10:12;14.70;78.90
57566;DHT22;63999;43.882;-0.310;2023-05-10T08:12:38;14.90;78.80
57566;DHT22;63999;43.882;-0.310;2023-05-10T08:15:05;15.00;79.20
57566;DHT22;63999;43.882;-0.310;2023-05-10T08:17:31;15.00;78.00
57566;DHT22;63999;43.882;-0.310;2023-05-10T08:20:09;14.90;78.10
57566;DHT22;63999;43.882;-0.310;2023-05-10T08:22:38;14.80;78.50
57566;DHT22;63999;43.882;-0.310;2023-05-10T08:25:04;14.90;78.10
57566;DHT22;63999;43.882;-0.310;2023-05-10T08:27:33;14.90;78.30
57566;DHT22;63999;43.882;-0.310;2023-05-10T08:29:58;15.00;77.90
57566;DHT22;63999;43.882;-0.310;2023-05-10T08:32:24;15.00;79.00
57566;DHT22;63999;43.882;-0.310;2023-05-10T08:34:50;15.20;77.60
57566;DHT22;63999;43.882;-0.310;2023-05-10T08:37:16;15.20;77.80
57566;DHT22;63999;43.882;-0.310;2023-05-10T08:39:42;15.20;77.70
57566;DHT22;63999;43.882;-0.310;2023-05-10T08:42:09;15.20;77.60
57566;DHT22;63999;43.882;-0.310;2023-05-10T08:44:35;15.10;77.50
57566;DHT22;63999;43.882;-0.310;2023-05-10T08:47:05;15.10;77.50
57566;DHT22;63999;43.882;-0.310;2023-05-10T08:49:34;15.10;77.20
57566;DHT22;63999;43.882;-0.310;2023-05-10T08:52:03;15.10;77.50
57566;DHT22;63999;43.882;-0.310;2023-05-10T08:57:55;15.20;77.20
57566;DHT22;63999;43.882;-0.310;2023-05-10T09:00:21;15.00;76.90
57566;DHT22;63999;43.882;-0.310;2023-05-10T09:02:49;15.00;76.50
57566;DHT22;63999;43.882;-0.310;2023-05-10T09:05:15;15.00;76.70
57566;DHT22;63999;43.882;-0.310;2023-05-10T09:07:43;15.00;76.50
57566;DHT22;63999;43.882;-0.310;2023-05-10T09:10:10;14.90;76.90
57566;DHT22;63999;43.882;-0.310;2023-05-10T09:12:36;15.00;77.40
57566;DHT22;63999;43.882;-0.310;2023-05-10T09:15:04;15.00;77.70
57566;DHT22;63999;43.882;-0.310;2023-05-10T09:17:31;15.00;77.30
57566;DHT22;63999;43.882;-0.310;2023-05-10T09:19:58;15.00;77.70
57566;DHT22;63999;43.882;-0.310;2023-05-10T09:22:25;15.00;77.90
57566;DHT22;63999;43.882;-0.310;2023-05-10T09:25:12;15.00;78.20
57566;DHT22;63999;43.882;-0.310;2023-05-10T09:27:47;15.00;78.00
57566;DHT22;63999;43.882;-0.310;2023-05-10T09:30:29;15.10;78.00
57566;DHT22;63999;43.882;-0.310;2023-05-10T09:33:00;15.20;77.70
57566;DHT22;63999;43.882;-0.310;2023-05-10T09:35:31;15.30;78.10
57566;DHT22;63999;43.882;-0.310;2023-05-10T09:38:04;15.30;77.50
57566;DHT22;63999;43.882;-0.310;2023-05-10T09:40:31;15.20;78.40
57566;DHT22;63999;43.882;-0.310;2023-05-10T09:43:02;15.30;77.40
57566;DHT22;63999;43.882;-0.310;2023-05-10T09:45:33;15.20;77.00
57566;DHT22;63999;43.882;-0.310;2023-05-10T09:48:01;15.20;78.50
57566;DHT22;63999;43.882;-0.310;2023-05-10T09:50:28;15.30;77.70
57566;DHT22;63999;43.882;-0.310;2023-05-10T09:52:56;15.30;77.50
57566;DHT22;63999;43.882;-0.310;2023-05-10T09:55:39;15.30;77.30
57566;DHT22;63999;43.882;-0.310;2023-05-10T09:58:05;15.30;78.70
57566;DHT22;63999;43.882;-0.310;2023-05-10T10:00:41;15.40;77.80
57566;DHT22;63999;43.882;-0.310;2023-05-10T10:03:19;15.40;77.70
57566;DHT22;63999;43.882;-0.310;2023-05-10T10:05:46;15.50;77.30
57566;DHT22;63999;43.882;-0.310;2023-05-10T10:08:16;15.40;77.30
57566;DHT22;63999;43.882;-0.310;2023-05-10T10:10:44;15.50;77.50
57566;DHT22;63999;43.882;-0.310;2023-05-10T10:13:15;15.50;77.90
57566;DHT22;63999;43.882;-0.310;2023-05-10T10:15:43;15.40;77.90
57566;DHT22;63999;43.882;-0.310;2023-05-10T10:18:13;15.40;78.00
57566;DHT22;63999;43.882;-0.310;2023-05-10T10:20:44;15.40;78.10
57566;DHT22;63999;43.882;-0.310;2023-05-10T10:23:10;15.40;78.30
57566;DHT22;63999;43.882;-0.310;2023-05-10T10:25:37;15.40;78.40
57566;DHT22;63999;43.882;-0.310;2023-05-10T10:28:21;15.50;79.20
57566;DHT22;63999;43.882;-0.310;2023-05-10T10:30:51;15.50;78.90
57566;DHT22;63999;43.882;-0.310;2023-05-10T10:35:48;15.60;79.00
57566;DHT22;63999;43.882;-0.310;2023-05-10T10:38:15;15.70;79.10
57566;DHT22;63999;43.882;-0.310;2023-05-10T10:40:42;15.80;78.40
57566;DHT22;63999;43.882;-0.310;2023-05-10T10:43:33;15.70;77.60
57566;DHT22;63999;43.882;-0.310;2023-05-10T10:46:16;15.70;78.00
57566;DHT22;63999;43.882;-0.310;2023-05-10T10:48:50;15.70;77.70
57566;DHT22;63999;43.882;-0.310;2023-05-10T10:51:37;15.80;77.70
57566;DHT22;63999;43.882;-0.310;2023-05-10T10:54:10;15.70;78.60
57566;DHT22;63999;43.882;-0.310;2023-05-10T10:56:36;15.70;77.90
57566;DHT22;63999;43.882;-0.310;2023-05-10T10:59:02;15.80;78.20
57566;DHT22;63999;43.882;-0.310;2023-05-10T11:01:41;15.70;78.10
57566;DHT22;63999;43.882;-0.310;2023-05-10T11:06:36;15.80;78.00
57566;DHT22;63999;43.882;-0.310;2023-05-10T11:09:10;15.80;77.20
57566;DHT22;63999;43.882;-0.310;2023-05-10T11:11:48;15.80;77.50
57566;DHT22;63999;43.882;-0.310;2023-05-10T11:14:20;15.80;77.90
57566;DHT22;63999;43.882;-0.310;2023-05-10T11:16:46;15.70;77.30
57566;DHT22;63999;43.882;-0.310;2023-05-10T11:19:14;15.80;77.60
57566;DHT22;63999;43.882;-0.310;2023-05-10T11:21:49;15.80;77.40
57566;DHT22;63999;43.882;-0.310;2023-05-10T11:24:21;15.80;77.20
57566;DHT22;63999;43.882;-0.310;2023-05-10T11:26:49;15.80;77.60
57566;DHT22;63999;43.882;-0.310;2023-05-10T11:29:16;15.80;77.60
57566;DHT22;63999;43.882;-0.310;2023-05-10T11:31:43;15.80;77.80
57566;DHT22;63999;43.882;-0.310;2023-05-10T11:34:11;15.80;77.20
57566;DHT22;63999;43.882;-0.310;2023-05-10T11:36:38;15.80;77.90
57566;DHT22;63999;43.882;-0.310;2023-05-10T11:39:07;15.80;77.60
57566;DHT22;63999;43.882;-0.310;2023-05-10T11:44:34;15.80;78.00
57566;DHT22;63999;43.882;-0.310;2023-05-10T11:47:01;15.90;78.60
57566;DHT22;63999;43.882;-0.310;2023-05-10T11:49:30;15.90;78.60
57566;DHT22;63999;43.882;-0.310;2023-05-10T11:52:08;15.90;78.20
57566;DHT22;63999;43.882;-0.310;2023-05-10T11:54:50;16.00;79.80
57566;DHT22;63999;43.882;-0.310;2023-05-10T11:57:17;16.10;77.90
57566;DHT22;63999;43.882;-0.310;2023-05-10T11:59:46;16.10;80.20
57566;DHT22;63999;43.882;-0.310;2023-05-10T12:02:14;16.20;80.80
57566;DHT22;63999;43.882;-0.310;2023-05-10T12:04:41;16.40;79.60
57566;DHT22;63999;43.882;-0.310;2023-05-10T12:07:07;16.50;79.80
57566;DHT22;63999;43.882;-0.310;2023-05-10T12:09:33;16.50;78.30
57566;DHT22;63999;43.882;-0.310;2023-05-10T12:12:02;16.40;78.40
57566;DHT22;63999;43.882;-0.310;2023-05-10T12:14:30;16.20;78.30
57566;DHT22;63999;43.882;-0.310;2023-05-10T12:16:59;16.10;78.20
57566;DHT22;63999;43.882;-0.310;2023-05-10T12:19:25;16.10;79.10
57566;DHT22;63999;43.882;-0.310;2023-05-10T12:21:51;16.10;79.10
57566;DHT22;63999;43.882;-0.310;2023-05-10T12:24:17;16.20;78.20
57566;DHT22;63999;43.882;-0.310;2023-05-10T12:26:45;16.20;78.70
57566;DHT22;63999;43.882;-0.310;2023-05-10T12:29:18;16.20;78.00
57566;DHT22;63999;43.882;-0.310;2023-05-10T12:34:34;16.20;79.00
57566;DHT22;63999;43.882;-0.310;2023-05-10T12:37:02;16.20;78.10
57566;DHT22;63999;43.882;-0.310;2023-05-10T12:39:43;16.20;77.70
57566;DHT22;63999;43.882;-0.310;2023-05-10T12:42:12;16.20;77.80
57566;DHT22;63999;43.882;-0.310;2023-05-10T12:44:39;16.30;78.20
57566;DHT22;63999;43.882;-0.310;2023-05-10T12:47:11;16.40;77.80
57566;DHT22;63999;43.882;-0.310;2023-05-10T12:49:38;16.40;77.40
57566;DHT22;63999;43.882;-0.310;2023-05-10T12:52:14;16.30;78.00
57566;DHT22;63999;43.882;-0.310;2023-05-10T12:54:54;16.40;77.60
57566;DHT22;63999;43.882;-0.310;2023-05-10T12:57:22;16.40;77.50
57566;DHT22;63999;43.882;-0.310;2023-05-10T12:59:57;16.40;77.70
57566;DHT22;63999;43.882;-0.310;2023-05-10T13:02:32;16.40;77.60
57566;DHT22;63999;43.882;-0.310;2023-05-10T13:05:03;16.40;77.40
57566;DHT22;63999;43.882;-0.310;2023-05-10T13:07:39;16.40;77.70
57566;DHT22;63999;43.882;-0.310;2023-05-10T13:10:09;16.40;77.50
57566;DHT22;63999;43.882;-0.310;2023-05-10T13:12:36;16.40;77.20
57566;DHT22;63999;43.882;-0.310;2023-05-10T13:15:02;16.40;77.30
57566;DHT22;63999;43.882;-0.310;2023-05-10T13:17:34;16.40;77.30
57566;DHT22;63999;43.882;-0.310;2023-05-10T13:20:03;16.40;77.20
57566;DHT22;63999;43.882;-0.310;2023-05-10T13:22:32;16.40;77.10
57566;DHT22;63999;43.882;-0.310;2023-05-10T13:25:03;16.50;76.70
57566;DHT22;63999;43.882;-0.310;2023-05-10T13:27:30;16.60;76.80
57566;DHT22;63999;43.882;-0.310;2023-05-10T13:29:59;16.50;76.90
57566;DHT22;63999;43.882;-0.310;2023-05-10T13:32:28;16.50;77.20
57566;DHT22;63999;43.882;-0.310;2023-05-10T13:34:55;16.60;76.60
57566;DHT22;63999;43.882;-0.310;2023-05-10T13:37:21;16.70;76.10
57566;DHT22;63999;43.882;-0.310;2023-05-10T13:39:47;16.70;76.10
57566;DHT22;63999;43.882;-0.310;2023-05-10T13:42:17;16.70;76.30
57566;DHT22;63999;43.882;-0.310;2023-05-10T13:44:50;16.60;76.20
57566;DHT22;63999;43.882;-0.310;2023-05-10T13:47:18;16.60;76.40
57566;DHT22;63999;43.882;-0.310;2023-05-10T13:49:47;16.60;76.60
57566;DHT22;63999;43.882;-0.310;2023-05-10T13:52:13;16.70;76.30
57566;DHT22;63999;43.882;-0.310;2023-05-10T13:54:42;16.70;76.20
57566;DHT22;63999;43.882;-0.310;2023-05-10T13:57:11;16.70;75.90
57566;DHT22;63999;43.882;-0.310;2023-05-10T13:59:42;16.80;75.50
57566;DHT22;63999;43.882;-0.310;2023-05-10T14:02:10;16.80;75.80
57566;DHT22;63999;43.882;-0.310;2023-05-10T14:04:41;16.80;75.80
57566;DHT22;63999;43.882;-0.310;2023-05-10T14:07:07;16.80;75.90
57566;DHT22;63999;43.882;-0.310;2023-05-10T14:09:38;16.70;75.90
57566;DHT22;63999;43.882;-0.310;2023-05-10T14:12:07;16.80;75.60
57566;DHT22;63999;43.882;-0.310;2023-05-10T14:14:33;16.80;75.30
57566;DHT22;63999;43.882;-0.310;2023-05-10T14:17:05;16.70;75.40
57566;DHT22;63999;43.882;-0.310;2023-05-10T14:19:34;16.80;75.70
57566;DHT22;63999;43.882;-0.310;2023-05-10T14:22:02;16.80;74.90
57566;DHT22;63999;43.882;-0.310;2023-05-10T14:24:28;16.80;74.60
57566;DHT22;63999;43.882;-0.310;2023-05-10T14:26:54;16.90;75.20
57566;DHT22;63999;43.882;-0.310;2023-05-10T14:29:21;16.80;74.40
57566;DHT22;63999;43.882;-0.310;2023-05-10T14:31:47;16.80;74.80
57566;DHT22;63999;43.882;-0.310;2023-05-10T14:34:16;16.80;74.90
57566;DHT22;63999;43.882;-0.310;2023-05-10T14:36:44;16.80;74.50
57566;DHT22;63999;43.882;-0.310;2023-05-10T14:39:18;16.80;74.60
57566;DHT22;63999;43.882;-0.310;2023-05-10T14:41:49;16.80;75.40
57566;DHT22;63999;43.882;-0.310;2023-05-10T14:44:19;16.80;74.00
57566;DHT22;63999;43.882;-0.310;2023-05-10T14:46:49;16.80;73.90
57566;DHT22;63999;43.882;-0.310;2023-05-10T14:49:18;16.90;75.00
57566;DHT22;63999;43.882;-0.310;2023-05-10T14:51:44;16.80;75.10
57566;DHT22;63999;43.882;-0.310;2023-05-10T14:54:11;16.80;75.20
57566;DHT22;63999;43.882;-0.310;2023-05-10T14:56:39;17.00;75.00
57566;DHT22;63999;43.882;-0.310;2023-05-10T14:59:07;16.90;73.20
57566;DHT22;63999;43.882;-0.310;2023-05-10T15:01:38;16.90;74.00
57566;DHT22;63999;43.882;-0.310;2023-05-10T15:04:07;16.80;74.10
57566;DHT22;63999;43.882;-0.310;2023-05-10T15:06:37;16.80;74.10
57566;DHT22;63999;43.882;-0.310;2023-05-10T15:09:03;16.80;73.80
57566;DHT22;63999;43.882;-0.310;2023-05-10T15:11:29;16.80;73.30
57566;DHT22;63999;43.882;-0.310;2023-05-10T15:13:58;16.70;73.40
57566;DHT22;63999;43.882;-0.310;2023-05-10T15:16:24;16.70;74.10
57566;DHT22;63999;43.882;-0.310;2023-05-10T15:18:50;16.80;73.60
57566;DHT22;63999;43.882;-0.310;2023-05-10T15:21:16;16.70;74.20
57566;DHT22;63999;43.882;-0.310;2023-05-10T15:23:47;16.80;73.70
57566;DHT22;63999;43.882;-0.310;2023-05-10T15:26:13;16.90;73.00
57566;DHT22;63999;43.882;-0.310;2023-05-10T15:28:41;16.80;73.60
57566;DHT22;63999;43.882;-0.310;2023-05-10T15:31:11;16.90;72.90
57566;DHT22;63999;43.882;-0.310;2023-05-10T15:33:37;16.80;73.00
57566;DHT22;63999;43.882;-0.310;2023-05-10T15:36:08;16.90;73.20
57566;DHT22;63999;43.882;-0.310;2023-05-10T15:38:34;16.80;73.90
57566;DHT22;63999;43.882;-0.310;2023-05-10T15:41:02;16.70;73.40
57566;DHT22;63999;43.882;-0.310;2023-05-10T15:43:30;16.80;73.60
57566;DHT22;63999;43.882;-0.310;2023-05-10T15:45:56;16.80;73.20
57566;DHT22;63999;43.882;-0.310;2023-05-10T15:48:22;16.70;73.20
57566;DHT22;63999;43.882;-0.310;2023-05-10T15:50:51;16.80;72.90
57566;DHT22;63999;43.882;-0.310;2023-05-10T15:53:19;16.80;73.00
57566;DHT22;63999;43.882;-0.310;2023-05-10T15:55:53;16.80;73.30
57566;DHT22;63999;43.882;-0.310;2023-05-10T15:58:19;16.90;73.30
57566;DHT22;63999;43.882;-0.310;2023-05-10T16:00:48;16.90;73.50